createdAt,value
2019-01-06T00:02:08.924Z,88.80
2019-01-06T00:05:51.315Z,88.57
2019-01-06T00:09:18.637Z,88.40
2019-01-06T00:12:47.327Z,89.23
2019-01-06T00:16:10.117Z,89.80
2019-01-06T00:19:35.335Z,89.51
2019-01-06T00:22:59.647Z,88.66
2019-01-06T00:26:26.518Z,89.00
2019-01-06T00:29:59.923Z,89.48
2019-01-06T00:33:33.332Z,88.97
2019-01-06T00:36:56.792Z,88.87
2019-01-06T00:40:19.522Z,88.63
2019-01-06T00:43:42.512Z,88.46
2019-01-06T00:47:06.317Z,88.80
2019-01-06T00:50:46.260Z,88.49
2019-01-06T00:54:10.318Z,88.22
2019-01-06T00:57:34.515Z,88.86
2019-01-06T01:00:58.626Z,88.69
2019-01-06T01:04:21.745Z,88.48
2019-01-06T01:07:44.560Z,88.11
2019-01-06T01:11:09.120Z,88.10
2019-01-06T01:14:41.258Z,87.97
2019-01-06T01:18:04.043Z,88.00
2019-01-06T01:21:35.025Z,88.09
2019-01-06T01:24:57.721Z,87.88
2019-01-06T01:28:21.936Z,87.96
2019-01-06T01:31:47.383Z,87.43
2019-01-06T01:35:11.849Z,87.67
2019-01-06T01:38:48.234Z,87.41
2019-01-06T01:42:13.390Z,87.58
2019-01-06T01:45:36.336Z,87.42
2019-01-06T01:48:59.284Z,87.27
2019-01-06T01:52:35.950Z,87.50
2019-01-06T01:56:01.542Z,87.20
2019-01-06T01:59:40.848Z,87.68
2019-01-06T02:03:03.772Z,87.62
2019-01-06T02:06:46.371Z,87.65
2019-01-06T02:10:13.571Z,88.55
2019-01-06T02:13:36.587Z,88.33
2019-01-06T02:17:18.781Z,88.41
2019-01-06T02:20:46.793Z,88.50
2019-01-06T02:24:09.881Z,88.53
2019-01-06T02:27:49.290Z,88.63
2019-01-06T02:31:13.511Z,88.27
2019-01-06T02:34:38.058Z,88.10
2019-01-06T02:38:05.531Z,88.60
2019-01-06T02:41:33.317Z,88.15
2019-01-06T02:44:56.388Z,87.54
2019-01-06T02:48:19.223Z,87.70
2019-01-06T02:51:42.117Z,88.01
2019-01-06T02:55:05.090Z,88.12
2019-01-06T02:58:38.751Z,88.40
2019-01-06T03:02:02.850Z,88.71
2019-01-06T03:05:32.102Z,88.32
2019-01-06T03:08:56.505Z,88.56
2019-01-06T03:12:26.886Z,88.30
2019-01-06T03:15:51.523Z,88.27
2019-01-06T03:19:14.360Z,88.81
2019-01-06T03:22:37.496Z,89.36
2019-01-06T03:26:00.493Z,88.99
2019-01-06T03:29:27.965Z,88.94
2019-01-06T03:32:47.577Z,89.09
2019-01-06T03:36:10.569Z,89.61
2019-01-06T03:39:41.192Z,88.98
2019-01-06T03:42:58.941Z,87.80
2019-01-06T03:46:24.203Z,87.43
2019-01-06T03:49:51.990Z,88.03
2019-01-06T03:53:28.557Z,87.51
2019-01-06T03:56:56.404Z,87.34
2019-01-06T04:00:19.321Z,87.22
2019-01-06T04:03:59.203Z,87.63
2019-01-06T04:07:26.060Z,87.61
2019-01-06T04:10:56.059Z,87.40
2019-01-06T04:14:29.888Z,87.46
2019-01-06T04:18:00.249Z,87.74
2019-01-06T04:21:24.629Z,87.37
2019-01-06T04:24:47.438Z,88.09
2019-01-06T04:28:24.973Z,88.01
2019-01-06T04:31:47.624Z,89.11
2019-01-06T04:35:20.582Z,88.65
2019-01-06T04:38:43.855Z,88.16
2019-01-06T04:42:26.682Z,88.87
2019-01-06T04:45:49.303Z,89.75
2019-01-06T04:49:20.405Z,90.07
2019-01-06T04:52:41.203Z,90.21
2019-01-06T04:56:20.650Z,90.52
2019-01-06T05:00:00.262Z,90.24
2019-01-06T05:03:23.371Z,90.72
2019-01-06T05:06:50.856Z,91.21
2019-01-06T05:10:13.993Z,91.35
2019-01-06T05:13:30.063Z,91.54
2019-01-06T05:16:55.898Z,91.63
2019-01-06T05:20:28.154Z,91.46
2019-01-06T05:23:53.622Z,91.23
2019-01-06T05:27:16.511Z,90.63
2019-01-06T05:30:43.338Z,91.08
2019-01-06T05:34:11.224Z,91.16
2019-01-06T05:37:34.349Z,91.24
2019-01-06T05:41:01.247Z,91.38
2019-01-06T05:44:24.222Z,91.41
2019-01-06T05:47:47.731Z,92.05
2019-01-06T05:51:18.035Z,91.29
2019-01-06T05:54:43.278Z,91.44
2019-01-06T05:58:07.664Z,91.84
2019-01-06T06:01:30.606Z,92.22
2019-01-06T06:04:52.120Z,92.02
2019-01-06T06:08:15.044Z,92.37
2019-01-06T06:11:37.859Z,92.21
2019-01-06T06:15:01.715Z,92.21
2019-01-06T06:18:26.043Z,92.64
2019-01-06T06:21:50.721Z,92.37
2019-01-06T06:25:30.137Z,92.18
2019-01-06T06:28:52.177Z,91.94
2019-01-06T06:32:15.185Z,92.20
2019-01-06T06:35:38.212Z,91.96
2019-01-06T06:39:11.584Z,91.82
2019-01-06T06:42:34.340Z,92.39
2019-01-06T06:46:02.235Z,91.81
2019-01-06T06:49:20.430Z,92.20
2019-01-06T06:52:43.614Z,92.16
2019-01-06T06:56:06.717Z,92.23
2019-01-06T06:59:29.484Z,92.15
2019-01-06T07:03:08.730Z,91.77
2019-01-06T07:06:31.641Z,91.63
2019-01-06T07:10:01.580Z,91.30
2019-01-06T07:13:35.681Z,91.78
2019-01-06T07:17:26.749Z,91.21
2019-01-06T07:21:02.723Z,91.52
2019-01-06T07:24:26.149Z,91.08
2019-01-06T07:27:48.715Z,91.34
2019-01-06T07:31:22.295Z,91.86
2019-01-06T07:34:49.306Z,91.77
2019-01-06T07:38:19.675Z,91.95
2019-01-06T07:41:46.530Z,92.28
2019-01-06T07:45:20.599Z,92.47
2019-01-06T07:48:50.491Z,90.79
2019-01-06T07:52:12.099Z,90.17
2019-01-06T07:55:48.703Z,91.05
2019-01-06T07:59:27.945Z,90.48
2019-01-06T08:03:00.916Z,90.87
2019-01-06T08:06:30.942Z,91.44
2019-01-06T08:09:53.652Z,91.21
2019-01-06T08:13:17.740Z,90.39
2019-01-06T08:16:40.477Z,90.16
2019-01-06T08:20:07.577Z,89.90
2019-01-06T08:23:30.701Z,89.34
2019-01-06T08:26:54.862Z,90.09
2019-01-06T08:30:17.979Z,90.48
2019-01-06T08:33:51.996Z,89.70
2019-01-06T08:37:35.370Z,88.87
2019-01-06T08:40:58.127Z,87.97
2019-01-06T08:44:22.289Z,87.96
2019-01-06T08:47:49.526Z,88.44
2019-01-06T08:51:16.718Z,87.39
2019-01-06T08:54:39.461Z,87.46
2019-01-06T08:58:04.406Z,87.56
2019-01-06T09:01:27.509Z,85.87
2019-01-06T09:05:12.229Z,85.89
2019-01-06T09:08:46.513Z,86.39
2019-01-06T09:12:20.114Z,86.43
2019-01-06T09:15:44.204Z,85.57
2019-01-06T09:19:10.617Z,86.38
2019-01-06T09:22:33.563Z,86.27
2019-01-06T09:25:56.701Z,85.19
2019-01-06T09:29:36.092Z,85.26
2019-01-06T09:32:59.823Z,85.16
2019-01-06T09:36:24.819Z,85.96
2019-01-06T09:39:47.855Z,85.82
2019-01-06T09:43:17.910Z,86.25
2019-01-06T09:46:41.084Z,85.17
2019-01-06T09:50:04.241Z,86.62
2019-01-06T09:53:27.081Z,85.78
2019-01-06T09:57:03.267Z,86.07
2019-01-06T10:00:35.615Z,86.50
2019-01-06T10:04:17.964Z,86.63
2019-01-06T10:07:57.018Z,86.38
2019-01-06T10:11:29.969Z,87.45
2019-01-06T10:15:06.294Z,86.06
2019-01-06T10:18:36.290Z,85.56
2019-01-06T10:22:00.384Z,86.22
2019-01-06T10:25:36.476Z,84.41
2019-01-06T10:28:59.721Z,83.82
2019-01-06T10:32:33.958Z,84.29
2019-01-06T10:36:13.589Z,84.44
2019-01-06T10:39:34.996Z,84.54
2019-01-06T10:43:17.830Z,83.81
2019-01-06T10:46:40.587Z,82.62
2019-01-06T10:50:17.218Z,81.97
2019-01-06T10:53:50.520Z,82.10
2019-01-06T10:57:26.730Z,81.39
2019-01-06T11:00:53.812Z,81.61
2019-01-06T11:04:36.122Z,82.57
2019-01-06T11:08:03.038Z,81.93
2019-01-06T11:11:28.338Z,82.84
2019-01-06T11:15:01.362Z,82.70
2019-01-06T11:18:44.342Z,83.08
2019-01-06T11:22:14.952Z,84.16
2019-01-06T11:25:38.113Z,84.13
2019-01-06T11:29:14.900Z,83.77
2019-01-06T11:32:37.753Z,83.48
2019-01-06T11:36:06.405Z,83.82
2019-01-06T11:39:42.660Z,84.13
2019-01-06T11:43:04.779Z,84.14
2019-01-06T11:46:18.501Z,84.03
2019-01-06T11:49:41.624Z,84.26
2019-01-06T11:53:08.912Z,84.59
2019-01-06T11:56:42.030Z,84.52
2019-01-06T12:00:08.845Z,84.65
2019-01-06T12:03:36.023Z,83.69
2019-01-06T12:06:58.880Z,83.62
2019-01-06T12:10:32.239Z,82.18
2019-01-06T12:13:56.357Z,82.78
2019-01-06T12:17:32.599Z,82.15
2019-01-06T12:20:56.755Z,83.29
2019-01-06T12:24:38.975Z,82.71
2019-01-06T12:28:03.753Z,81.97
2019-01-06T12:31:30.945Z,82.73
2019-01-06T12:34:53.706Z,80.82
2019-01-06T12:38:15.486Z,81.54
2019-01-06T12:41:38.471Z,81.88
2019-01-06T12:45:08.659Z,83.04
2019-01-06T12:48:45.600Z,80.29
2019-01-06T12:52:08.359Z,81.57
2019-01-06T12:55:38.537Z,82.26
2019-01-06T12:59:01.429Z,82.28
2019-01-06T13:02:28.608Z,82.12
2019-01-06T13:05:51.328Z,81.41
2019-01-06T13:09:21.364Z,81.01
2019-01-06T13:12:38.898Z,81.60
2019-01-06T13:16:06.095Z,81.71
2019-01-06T13:19:29.226Z,81.46
2019-01-06T13:23:02.622Z,81.89
2019-01-06T13:26:19.446Z,81.44
2019-01-06T13:29:43.597Z,82.66
2019-01-06T13:33:13.073Z,81.77
2019-01-06T13:36:44.350Z,82.42
2019-01-06T13:40:07.276Z,83.58
2019-01-06T13:43:30.425Z,83.05
2019-01-06T13:47:03.937Z,83.11
2019-01-06T13:50:31.235Z,82.77
2019-01-06T13:54:07.508Z,82.23
2019-01-06T13:57:30.486Z,82.30
2019-01-06T14:00:54.606Z,83.06
2019-01-06T14:04:16.698Z,82.26
2019-01-06T14:07:50.017Z,82.45
2019-01-06T14:11:13.172Z,81.64
2019-01-06T14:14:36.306Z,82.95
2019-01-06T14:17:59.117Z,82.48
2019-01-06T14:21:23.278Z,83.04
2019-01-06T14:24:45.887Z,82.73
2019-01-06T14:28:15.800Z,83.53
2019-01-06T14:31:46.216Z,82.41
2019-01-06T14:35:09.619Z,83.06
2019-01-06T14:38:33.900Z,82.83
2019-01-06T14:41:56.558Z,83.34
2019-01-06T14:45:33.107Z,82.69
2019-01-06T14:49:12.637Z,83.38
2019-01-06T14:52:33.368Z,82.04
2019-01-06T14:55:56.503Z,83.62
2019-01-06T14:59:20.551Z,83.75
2019-01-06T15:02:43.568Z,82.36
2019-01-06T15:06:06.636Z,82.50
2019-01-06T15:09:37.174Z,83.08
2019-01-06T15:13:13.526Z,83.23
2019-01-06T15:16:51.080Z,83.87
2019-01-06T15:20:34.164Z,83.91
2019-01-06T15:24:07.671Z,83.24
2019-01-06T15:27:22.058Z,84.88
2019-01-06T15:30:46.167Z,84.13
2019-01-06T15:34:13.381Z,84.83
2019-01-06T15:37:30.110Z,84.98
2019-01-06T15:40:53.189Z,83.86
2019-01-06T15:44:15.876Z,84.33
2019-01-06T15:47:52.965Z,84.92
2019-01-06T15:51:20.152Z,84.72
2019-01-06T15:54:50.846Z,84.92
2019-01-06T15:58:15.008Z,84.14
2019-01-06T16:01:39.153Z,83.47
2019-01-06T16:05:01.915Z,83.68
2019-01-06T16:08:28.583Z,83.30
2019-01-06T16:11:58.988Z,83.55
2019-01-06T16:15:26.145Z,84.48
2019-01-06T16:18:50.372Z,83.51
2019-01-06T16:22:18.198Z,83.61
2019-01-06T16:25:50.368Z,84.12
2019-01-06T16:29:17.708Z,84.76
2019-01-06T16:32:42.050Z,84.94
2019-01-06T16:36:12.720Z,84.23
2019-01-06T16:39:36.124Z,85.10
2019-01-06T16:43:06.095Z,85.28
2019-01-06T16:46:33.286Z,85.04
2019-01-06T16:49:56.520Z,84.82
2019-01-06T16:53:19.873Z,85.21
2019-01-06T16:56:55.428Z,84.89
2019-01-06T17:00:19.736Z,85.42
2019-01-06T17:03:46.997Z,85.12
2019-01-06T17:07:06.479Z,84.75
2019-01-06T17:10:29.412Z,84.65
2019-01-06T17:13:52.555Z,84.81
2019-01-06T17:17:25.950Z,84.55
2019-01-06T17:20:56.081Z,84.08
2019-01-06T17:24:19.039Z,84.78
2019-01-06T17:27:43.391Z,85.00
2019-01-06T17:31:16.773Z,85.24
2019-01-06T17:34:59.404Z,85.28
2019-01-06T17:38:26.834Z,85.48
2019-01-06T17:41:49.785Z,84.48
2019-01-06T17:45:17.140Z,85.03
2019-01-06T17:48:47.279Z,84.91
2019-01-06T17:52:10.161Z,85.40
2019-01-06T17:55:43.992Z,85.17
2019-01-06T17:59:08.015Z,84.73
2019-01-06T18:02:30.927Z,84.83
2019-01-06T18:05:55.235Z,84.71
2019-01-06T18:09:18.212Z,85.08
2019-01-06T18:12:45.559Z,84.96
2019-01-06T18:16:08.563Z,85.34
2019-01-06T18:19:31.973Z,84.70
2019-01-06T18:22:59.521Z,84.47
2019-01-06T18:26:23.846Z,85.02
2019-01-06T18:29:45.625Z,84.47
2019-01-06T18:33:12.818Z,84.80
2019-01-06T18:36:35.873Z,84.58
2019-01-06T18:40:09.104Z,84.65
2019-01-06T18:43:31.276Z,84.49
2019-01-06T18:46:55.528Z,84.93
2019-01-06T18:50:25.105Z,84.24
2019-01-06T18:53:48.052Z,84.32
2019-01-06T18:57:12.440Z,84.02
2019-01-06T19:00:32.389Z,83.79
2019-01-06T19:03:55.258Z,84.21
2019-01-06T19:07:29.226Z,83.75
2019-01-06T19:11:05.921Z,83.36
2019-01-06T19:14:48.681Z,83.28
2019-01-06T19:18:15.348Z,83.36
2019-01-06T19:21:38.429Z,83.58
2019-01-06T19:25:01.308Z,83.64
2019-01-06T19:28:25.538Z,84.10
2019-01-06T19:31:48.544Z,84.27
2019-01-06T19:35:20.208Z,83.69
2019-01-06T19:38:44.576Z,84.28
2019-01-06T19:42:07.642Z,84.00
2019-01-06T19:45:50.204Z,84.03
2019-01-06T19:49:13.095Z,83.81
2019-01-06T19:52:52.470Z,83.68
2019-01-06T19:56:25.734Z,83.76
2019-01-06T19:59:52.959Z,84.35
2019-01-06T20:03:18.121Z,84.01
2019-01-06T20:06:50.236Z,83.91
2019-01-06T20:10:12.443Z,83.53
2019-01-06T20:13:35.630Z,83.38
2019-01-06T20:16:52.950Z,82.94
2019-01-06T20:20:17.228Z,83.15
2019-01-06T20:23:40.335Z,83.51
2019-01-06T20:27:03.606Z,83.75
2019-01-06T20:30:26.940Z,83.56
2019-01-06T20:33:50.211Z,82.69
2019-01-06T20:37:17.216Z,83.38
2019-01-06T20:40:43.454Z,83.14
2019-01-06T20:44:17.203Z,83.51
2019-01-06T20:47:56.226Z,83.82
2019-01-06T20:51:26.659Z,83.11
2019-01-06T20:54:59.845Z,83.43
2019-01-06T20:58:27.145Z,83.62
2019-01-06T21:01:50.395Z,84.46
2019-01-06T21:05:08.119Z,84.26
2019-01-06T21:08:32.917Z,84.51
2019-01-06T21:11:57.287Z,84.14
2019-01-06T21:15:27.603Z,84.69
2019-01-06T21:18:51.924Z,84.82
2019-01-06T21:22:21.538Z,85.47
2019-01-06T21:26:04.282Z,86.00
2019-01-06T21:29:44.134Z,86.69
2019-01-06T21:33:14.566Z,87.41
2019-01-06T21:36:41.581Z,88.07
2019-01-06T21:40:05.853Z,87.39
2019-01-06T21:43:33.214Z,88.12
2019-01-06T21:46:57.804Z,88.55
2019-01-06T21:50:22.131Z,87.72
2019-01-06T21:54:03.827Z,87.68
2019-01-06T21:57:23.046Z,87.46
2019-01-06T22:00:50.141Z,87.37
2019-01-06T22:04:17.235Z,87.33
2019-01-06T22:07:40.360Z,86.92
2019-01-06T22:11:05.129Z,87.19
2019-01-06T22:14:35.371Z,87.22
2019-01-06T22:18:15.038Z,86.34
2019-01-06T22:21:48.639Z,86.17
2019-01-06T22:25:16.141Z,87.10
2019-01-06T22:28:40.383Z,86.11
2019-01-06T22:32:22.791Z,86.05
2019-01-06T22:35:45.739Z,85.59
2019-01-06T22:39:09.959Z,85.65
2019-01-06T22:42:46.676Z,85.85
2019-01-06T22:46:09.864Z,85.83
2019-01-06T22:49:32.930Z,85.68
2019-01-06T22:52:55.813Z,85.28
2019-01-06T22:56:35.540Z,85.11
2019-01-06T23:00:14.774Z,85.32
2019-01-06T23:03:44.495Z,85.09
2019-01-06T23:07:07.440Z,85.25
2019-01-06T23:10:30.612Z,84.96
2019-01-06T23:13:53.447Z,85.66
2019-01-06T23:17:09.764Z,86.00
2019-01-06T23:20:34.374Z,86.39
2019-01-06T23:23:57.772Z,85.82
2019-01-06T23:27:20.931Z,85.65
2019-01-06T23:30:57.311Z,86.17
2019-01-06T23:34:27.980Z,86.27
2019-01-06T23:37:57.983Z,86.66
2019-01-06T23:41:22.253Z,86.52
2019-01-06T23:44:45.563Z,86.48
2019-01-06T23:48:12.970Z,86.52
2019-01-06T23:51:43.289Z,86.50
2019-01-06T23:55:16.608Z,87.52
2019-01-06T23:58:39.703Z,87.46
